Time;durP1;ratioP1;P1;durP2;ratioP2;P2;SDS_P1;SDS_P2;PMS_P1;PMS_P2;Temp;Humidity;BMP_temperature;BMP_pressure;BME280_temperature;BME280_humidity;BME280_pressure;Samples;Min_cycle;Max_cycle;Signal;HPM_P1;HPM_P2
2022/07/22 00:00:23;;;;;;;;;19.00;17.50;;;;;24.20;100.00;101681.94;5120878;27;45605;-81
2022/07/22 00:02:48;;;;;;;;;20.25;17.50;;;;;24.19;100.00;101685.47;5119855;27;45312;-81
2022/07/22 00:05:14;;;;;;;;;18.00;17.00;;;;;24.18;100.00;101686.34;5119931;27;45280;-81
2022/07/22 00:07:40;;;;;;;;;16.25;14.25;;;;;24.16;100.00;101683.69;5119682;27;45171;-80
2022/07/22 00:10:08;;;;;;;;;19.50;16.00;;;;;24.15;99.91;101689.88;5120021;27;45251;-81
2022/07/22 00:12:33;;;;;;;;;20.25;18.25;;;;;24.11;100.00;101686.34;5119438;27;46541;-81
2022/07/22 00:14:59;;;;;;;;;17.00;17.00;;;;;24.06;100.00;101687.22;5119748;27;45404;-81
2022/07/22 00:17:25;;;;;;;;;19.50;16.25;;;;;24.03;100.00;101684.53;5101656;27;45425;-81
2022/07/22 00:19:50;;;;;;;;;21.50;17.00;;;;;24.03;100.00;101684.53;5119690;27;45314;-81
2022/07/22 00:22:16;;;;;;;;;16.00;16.00;;;;;24.00;100.00;101685.41;5119631;27;46078;-81
2022/07/22 00:24:41;;;;;;;;;18.00;18.00;;;;;23.97;100.00;101684.53;5135138;27;45333;-81
2022/07/22 00:27:07;;;;;;;;;19.25;18.25;;;;;23.95;100.00;101680.13;5134341;27;45188;-81
2022/07/22 00:29:33;;;;;;;;;20.50;18.00;;;;;23.92;100.00;101673.88;5119650;27;45261;-81
2022/07/22 00:31:59;;;;;;;;;18.50;18.00;;;;;23.90;100.00;101673.03;5118870;27;45705;-81
2022/07/22 00:34:24;;;;;;;;;23.75;21.75;;;;;23.87;100.00;101660.63;5119688;27;45353;-81
2022/07/22 00:36:50;;;;;;;;;22.00;21.75;;;;;23.88;100.00;101665.06;5119283;27;45232;-81
2022/07/22 00:39:15;;;;;;;;;19.00;18.50;;;;;23.86;100.00;101663.28;5128594;27;45249;-81
2022/07/22 00:41:41;;;;;;;;;19.75;19.50;;;;;23.81;100.00;101674.72;5121201;27;46344;-81
2022/07/22 00:44:08;;;;;;;;;25.25;22.25;;;;;23.79;100.00;101662.38;5140029;27;45370;-81
2022/07/22 00:46:35;;;;;;;;;14.50;13.75;;;;;23.77;100.00;101650.91;5139966;27;45342;-81
2022/07/22 00:49:02;;;;;;;;;22.00;18.00;;;;;23.76;100.00;101655.34;5140424;27;45466;-81
2022/07/22 00:51:29;;;;;;;;;21.75;19.00;;;;;23.76;100.00;101657.97;5139635;27;45864;-81
2022/07/22 00:53:56;;;;;;;;;22.00;19.75;;;;;23.72;100.00;101657.97;5140146;27;45239;-81
2022/07/22 00:56:22;;;;;;;;;23.75;23.75;;;;;23.68;100.00;101646.50;5121629;27;45361;-81
2022/07/22 00:58:50;;;;;;;;;23.25;18.75;;;;;23.65;100.00;101646.47;5139081;27;45401;-81
2022/07/22 01:01:16;;;;;;;;;21.75;20.75;;;;;23.61;100.00;101640.31;5139780;27;45400;-81
2022/07/22 01:03:42;;;;;;;;;22.25;19.75;;;;;23.62;100.00;101651.75;5139653;27;45208;-81
2022/07/22 01:06:08;;;;;;;;;25.25;20.25;;;;;23.59;100.00;101643.81;5121338;27;45215;-81
2022/07/22 01:08:34;;;;;;;;;27.50;23.50;;;;;23.56;100.00;101643.81;5139886;27;45502;-81
2022/07/22 01:11:14;;;;;;;;;26.75;24.25;;;;;23.51;100.00;101643.78;5139598;27;45311;-81
2022/07/22 01:13:41;;;;;;;;;22.25;20.25;;;;;23.48;100.00;101644.66;5139448;27;45987;-81
2022/07/22 01:16:08;;;;;;;;;19.25;18.75;;;;;23.46;100.00;101648.16;5139838;27;45305;-81
2022/07/22 01:18:36;;;;;;;;;24.00;20.25;;;;;23.45;100.00;101639.34;5120645;27;45469;-81
2022/07/22 01:21:01;;;;;;;;;21.75;18.50;;;;;23.45;100.00;101649.03;5118812;27;45705;-81
2022/07/22 01:23:27;;;;;;;;;18.25;18.00;;;;;23.44;100.00;101650.81;5119575;27;45527;-81
2022/07/22 01:25:53;;;;;;;;;20.00;18.00;;;;;23.43;100.00;101641.09;5119185;27;45274;-81
2022/07/22 01:28:20;;;;;;;;;20.75;19.25;;;;;23.41;100.00;101641.97;5118815;27;45561;-81
2022/07/22 01:30:45;;;;;;;;;18.25;17.25;;;;;23.40;100.00;101638.44;5118318;27;46103;-82
2022/07/22 01:33:11;;;;;;;;;18.00;18.00;;;;;23.41;100.00;101647.25;5118546;27;45365;-81
2022/07/22 01:35:37;;;;;;;;;21.25;16.25;;;;;23.39;100.00;101641.94;5134061;27;45500;-82
2022/07/22 01:38:02;;;;;;;;;19.50;16.50;;;;;23.39;100.00;101635.81;5139383;27;45350;-81
2022/07/22 01:40:28;;;;;;;;;19.50;14.75;;;;;23.35;100.00;101634.91;5138859;27;46555;-81
2022/07/22 01:42:54;;;;;;;;;15.25;12.25;;;;;23.33;100.00;101637.53;5138935;27;45375;-81
2022/07/22 01:45:19;;;;;;;;;15.00;14.25;;;;;23.30;100.00;101636.63;5139349;27;45233;-82
2022/07/22 01:47:45;;;;;;;;;14.75;13.50;;;;;23.29;100.00;101634.84;5139165;27;45563;-79
2022/07/22 01:50:11;;;;;;;;;16.50;14.75;;;;;23.25;100.00;101635.75;5139001;27;45343;-81
2022/07/22 01:52:38;;;;;;;;;16.25;15.75;;;;;23.24;100.00;101640.13;5138778;27;45362;-81
2022/07/22 01:55:06;;;;;;;;;14.75;13.00;;;;;23.20;100.00;101638.34;5139094;27;45529;-81
2022/07/22 01:57:31;;;;;;;;;9.00;9.00;;;;;23.15;100.00;101635.66;5137117;27;45539;-81
2022/07/22 01:59:57;;;;;;;;;15.25;14.25;;;;;23.15;100.00;101630.38;5120098;27;45372;-81
2022/07/22 02:02:22;;;;;;;;;15.25;13.25;;;;;23.13;100.00;101625.94;5139225;27;45244;-81
2022/07/22 02:04:48;;;;;;;;;13.25;13.00;;;;;23.10;100.00;101625.94;5120803;27;45230;-81
2022/07/22 02:07:14;;;;;;;;;13.25;11.25;;;;;23.08;100.00;101619.75;5118132;27;45623;-81
2022/07/22 02:09:39;;;;;;;;;13.50;11.50;;;;;23.03;100.00;101625.00;5117694;27;46337;-81
2022/07/22 02:12:05;;;;;;;;;16.00;12.50;;;;;23.03;100.00;101630.28;5136700;27;45236;-81
2022/07/22 02:14:30;;;;;;;;;12.75;11.00;;;;;23.01;100.00;101632.91;5138467;27;45289;-81
2022/07/22 02:16:56;;;;;;;;;10.00;9.50;;;;;22.96;100.00;101626.72;5139364;27;45237;-81
2022/07/22 02:19:22;;;;;;;;;14.75;12.00;;;;;22.92;100.00;101627.56;5120104;27;46490;-81
2022/07/22 02:21:47;;;;;;;;;10.50;10.50;;;;;22.91;100.00;101627.56;5138454;27;45417;-81
2022/07/22 02:24:13;;;;;;;;;12.25;11.00;;;;;22.87;100.00;101626.69;5138168;27;45287;-81
2022/07/22 02:26:38;;;;;;;;;13.00;11.75;;;;;22.84;100.00;101624.00;5138667;27;45431;-81
2022/07/22 02:29:04;;;;;;;;;12.50;12.50;;;;;22.80;100.00;101628.38;5119760;27;46852;-81
2022/07/22 02:31:29;;;;;;;;;13.50;12.25;;;;;22.80;100.00;101627.47;5138156;27;45396;-81
2022/07/22 02:33:55;;;;;;;;;14.50;10.75;;;;;22.80;100.00;101630.13;5138746;27;45462;-81
2022/07/22 02:36:21;;;;;;;;;14.75;13.00;;;;;22.78;100.00;101632.75;5138629;27;45440;-81
2022/07/22 02:38:46;;;;;;;;;15.00;13.25;;;;;22.79;100.00;101628.34;5137406;27;46392;-81
2022/07/22 02:41:12;;;;;;;;;14.25;12.00;;;;;22.77;100.00;101633.63;5137703;27;45309;-81
2022/07/22 02:43:37;;;;;;;;;16.75;12.00;;;;;22.76;100.00;101631.88;5138234;27;45342;-81
2022/07/22 02:46:03;;;;;;;;;14.00;13.00;;;;;22.76;100.00;101636.28;5138531;27;45446;-81
2022/07/22 02:48:29;;;;;;;;;15.75;11.25;;;;;22.77;100.00;101632.75;5133381;27;45226;-81
2022/07/22 02:50:54;;;;;;;;;10.75;10.50;;;;;22.73;100.00;101623.94;5117745;27;45204;-81
2022/07/22 02:53:20;;;;;;;;;12.00;12.00;;;;;22.71;100.00;101620.41;5117481;27;45249;-81
2022/07/22 02:55:46;;;;;;;;;13.75;11.50;;;;;22.72;100.00;101625.69;5098885;27;45422;-81
2022/07/22 02:58:11;;;;;;;;;10.50;10.50;;;;;22.69;100.00;101616.88;5133001;27;45674;-81
2022/07/22 03:00:37;;;;;;;;;12.50;11.25;;;;;22.69;100.00;101615.09;5137900;27;45733;-81
2022/07/22 03:03:03;;;;;;;;;12.75;12.00;;;;;22.68;100.00;101618.59;5138084;27;45326;-81
2022/07/22 03:05:29;;;;;;;;;15.50;11.50;;;;;22.67;100.00;101614.22;5138036;27;45587;-81
2022/07/22 03:07:55;;;;;;;;;13.00;12.00;;;;;22.67;100.00;101618.59;5138179;27;45291;-80
2022/07/22 03:10:21;;;;;;;;;13.75;13.75;;;;;22.66;100.00;101609.81;5137815;27;45389;-81
2022/07/22 03:12:47;;;;;;;;;14.00;14.00;;;;;22.62;100.00;101607.13;5137848;27;45276;-81
2022/07/22 03:15:13;;;;;;;;;13.25;11.00;;;;;22.61;100.00;101608.88;5138082;27;45213;-81
2022/07/22 03:17:38;;;;;;;;;13.00;12.25;;;;;22.57;100.00;101612.34;5137422;27;45236;-81
2022/07/22 03:20:06;;;;;;;;;11.25;11.25;;;;;22.53;100.00;101614.09;5137683;27;45266;-80
2022/07/22 03:22:32;;;;;;;;;13.75;13.00;;;;;22.47;100.00;101618.44;5138649;27;45245;-81
2022/07/22 03:24:58;;;;;;;;;10.50;10.50;;;;;22.44;100.00;101613.16;5141747;27;45411;-80
2022/07/22 03:27:24;;;;;;;;;15.50;12.00;;;;;22.41;100.00;101599.06;5141510;27;46188;-81
2022/07/22 03:29:49;;;;;;;;;15.25;13.00;;;;;22.41;100.00;101601.69;5141191;27;45369;-81
2022/07/22 03:32:15;;;;;;;;;13.00;12.50;;;;;22.40;100.00;101606.94;5141454;27;45411;-81
2022/07/22 03:34:41;;;;;;;;;11.75;11.00;;;;;22.35;100.00;101606.00;5141336;27;45388;-81
2022/07/22 03:37:06;;;;;;;;;9.00;9.00;;;;;22.30;100.00;101608.59;5141340;27;45365;-81
2022/07/22 03:39:32;;;;;;;;;13.00;11.50;;;;;22.25;100.00;101610.28;5108080;27;45480;-80
2022/07/22 03:41:58;;;;;;;;;13.75;12.50;;;;;22.22;100.00;101611.16;5120785;27;46270;-81
2022/07/22 03:44:24;;;;;;;;;8.50;7.00;;;;;22.22;100.00;101613.78;5125316;27;45253;-81
2022/07/22 03:46:50;;;;;;;;;11.75;10.50;;;;;22.21;100.00;101614.66;5140722;27;45894;-80
2022/07/22 03:49:15;;;;;;;;;11.00;10.75;;;;;22.21;100.00;101619.06;5140574;27;45259;-80
2022/07/22 03:51:41;;;;;;;;;11.00;11.00;;;;;22.19;100.00;101618.16;5140810;27;45245;-81
2022/07/22 03:54:06;;;;;;;;;12.50;12.25;;;;;22.19;100.00;101613.75;5141324;27;45753;-81
2022/07/22 03:56:32;;;;;;;;;13.75;11.50;;;;;22.19;100.00;101613.75;5140634;27;46100;-81
2022/07/22 03:58:58;;;;;;;;;12.00;11.00;;;;;22.19;100.00;101610.25;5140881;27;45788;-81
2022/07/22 04:01:24;;;;;;;;;10.50;10.50;;;;;22.20;100.00;101625.22;5141221;27;45350;-80
2022/07/22 04:03:49;;;;;;;;;13.00;12.00;;;;;22.17;100.00;101620.78;5140961;27;45601;-81
2022/07/22 04:06:16;;;;;;;;;12.50;11.50;;;;;22.13;100.00;101613.72;5140619;27;45972;-79
2022/07/22 04:08:42;;;;;;;;;12.50;10.25;;;;;22.14;100.00;101617.25;5140389;27;45800;-80
2022/07/22 04:11:08;;;;;;;;;15.00;12.25;;;;;22.15;100.00;101616.34;5122296;27;45261;-80
2022/07/22 04:13:33;;;;;;;;;13.00;11.50;;;;;22.13;100.00;101620.75;5140585;27;45414;-80
2022/07/22 04:15:59;;;;;;;;;9.50;8.50;;;;;22.13;100.00;101608.44;5140514;27;46216;-81
2022/07/22 04:18:24;;;;;;;;;13.00;12.75;;;;;22.11;100.00;101613.72;5140992;27;45245;-81
2022/07/22 04:20:50;;;;;;;;;10.25;9.75;;;;;22.09;100.00;101610.16;5140178;27;45219;-81
2022/07/22 04:23:16;;;;;;;;;14.00;11.00;;;;;22.06;100.00;101604.84;5140821;27;45205;-81
2022/07/22 04:25:42;;;;;;;;;14.00;13.50;;;;;22.03;100.00;101607.44;5140191;27;46142;-81
2022/07/22 04:28:07;;;;;;;;;12.00;11.00;;;;;21.99;100.00;101603.03;5140276;27;45459;-81
2022/07/22 04:30:33;;;;;;;;;13.25;12.00;;;;;21.99;100.00;101600.41;5140297;27;45348;-82
2022/07/22 04:32:59;;;;;;;;;14.50;10.25;;;;;22.03;100.00;101602.19;5141141;27;45559;-82
2022/07/22 04:35:24;;;;;;;;;11.25;9.50;;;;;22.03;100.00;101610.09;5139621;27;45369;-82
2022/07/22 04:37:51;;;;;;;;;11.75;11.25;;;;;22.07;100.00;101597.84;5120932;27;45405;-82
2022/07/22 04:40:16;;;;;;;;;14.25;13.50;;;;;22.10;100.00;101605.75;5140397;27;45282;-81
2022/07/22 04:42:42;;;;;;;;;11.75;11.50;;;;;22.11;100.00;101599.63;5140321;27;45618;-81
2022/07/22 04:45:08;;;;;;;;;14.50;12.00;;;;;22.13;100.00;101597.88;5121519;27;47633;-81
2022/07/22 04:47:34;;;;;;;;;13.50;13.00;;;;;22.18;100.00;101588.28;5139939;27;45726;-82
2022/07/22 04:49:59;;;;;;;;;11.00;8.50;;;;;22.11;100.00;101589.97;5140380;27;45216;-82
2022/07/22 04:52:25;;;;;;;;;12.75;12.75;;;;;22.14;100.00;101589.09;5140657;27;45216;-82
2022/07/22 04:54:50;;;;;;;;;12.00;10.75;;;;;22.15;100.00;101589.97;5139633;27;46203;-82
2022/07/22 04:57:16;;;;;;;;;15.00;13.00;;;;;22.16;100.00;101586.47;5140350;27;45438;-82
2022/07/22 04:59:42;;;;;;;;;12.75;11.00;;;;;22.13;100.00;101582.06;5139881;27;45220;-82
2022/07/22 05:02:08;;;;;;;;;13.25;13.00;;;;;22.18;100.00;101583.00;5140365;27;45491;-82
2022/07/22 05:04:34;;;;;;;;;12.00;12.00;;;;;22.25;100.00;101579.53;5139734;27;45992;-82
2022/07/22 05:07:00;;;;;;;;;12.75;11.50;;;;;22.26;100.00;101585.69;5121289;27;45398;-83
2022/07/22 05:09:25;;;;;;;;;12.00;12.00;;;;;22.26;100.00;101583.03;5140241;27;45299;-83
2022/07/22 05:11:51;;;;;;;;;12.00;12.00;;;;;22.26;100.00;101585.69;5140314;27;45408;-83
2022/07/22 05:14:17;;;;;;;;;12.50;12.00;;;;;22.26;100.00;101590.97;5132274;27;45823;-83
2022/07/22 05:16:42;;;;;;;;;13.75;10.50;;;;;22.23;100.00;101578.63;5118674;27;45287;-82
2022/07/22 05:19:08;;;;;;;;;13.75;10.25;;;;;22.26;100.00;101581.31;5118845;27;45278;-82
2022/07/22 05:21:34;;;;;;;;;11.00;10.75;;;;;22.30;100.00;101578.72;5119149;27;45368;-82
2022/07/22 05:23:59;;;;;;;;;15.25;12.25;;;;;22.34;100.00;101576.09;5118716;27;45314;-82
2022/07/22 05:26:28;;;;;;;;;15.00;15.00;;;;;22.34;100.00;101572.56;5100582;27;45507;-83
2022/07/22 05:28:54;;;;;;;;;15.50;12.25;;;;;22.38;100.00;101566.47;5120253;27;45487;-82
2022/07/22 05:31:19;;;;;;;;;12.50;12.50;;;;;22.38;100.00;101569.09;5100536;27;45412;-83
2022/07/22 05:33:45;;;;;;;;;13.00;11.00;;;;;22.36;100.00;101571.69;5118212;27;45940;-82
2022/07/22 05:36:10;;;;;;;;;13.75;12.25;;;;;22.39;100.00;101573.50;5118624;27;45416;-83
2022/07/22 05:38:36;;;;;;;;;13.25;11.50;;;;;22.37;100.00;101576.09;5118424;27;45279;-83
2022/07/22 05:41:02;;;;;;;;;13.00;12.00;;;;;22.34;100.00;101562.91;5118911;27;45587;-82
2022/07/22 05:43:28;;;;;;;;;11.50;11.00;;;;;22.41;100.00;101582.31;5118179;27;45369;-82
2022/07/22 05:45:54;;;;;;;;;13.25;13.25;;;;;22.42;100.00;101568.25;5118232;27;45819;-82
2022/07/22 05:48:20;;;;;;;;;12.00;11.00;;;;;22.44;100.00;101582.34;5126710;27;45180;-82
2022/07/22 05:50:45;;;;;;;;;12.00;11.75;;;;;22.46;100.00;101577.97;5123884;27;45423;-81
2022/07/22 05:53:11;;;;;;;;;13.75;12.00;;;;;22.45;100.00;101576.22;5132660;27;45906;-82
2022/07/22 05:55:37;;;;;;;;;13.25;11.75;;;;;22.48;100.00;101576.25;5122926;27;45945;-81
2022/07/22 05:58:02;;;;;;;;;12.25;11.25;;;;;22.49;100.00;101569.19;5108519;27;45413;-79
2022/07/22 06:00:28;;;;;;;;;14.50;12.00;;;;;22.51;100.00;101562.19;5122498;27;45513;-80
2022/07/22 06:02:54;;;;;;;;;12.25;12.25;;;;;22.53;100.00;101563.06;5118666;27;46047;-84
2022/07/22 06:05:20;;;;;;;;;15.25;12.00;;;;;22.51;100.00;101556.91;5122081;27;45354;-86
2022/07/22 06:07:45;;;;;;;;;12.50;11.25;;;;;22.51;100.00;101554.25;5139187;27;45408;-83
2022/07/22 06:10:11;;;;;;;;;15.25;12.00;;;;;22.53;100.00;101558.66;5138964;27;45331;-81
2022/07/22 06:12:37;;;;;;;;;15.00;12.25;;;;;22.57;100.00;101573.66;5147155;27;45587;-83
2022/07/22 06:15:04;;;;;;;;;13.50;12.50;;;;;22.52;100.00;101567.47;5123613;27;45321;-82
2022/07/22 06:17:30;;;;;;;;;14.50;13.00;;;;;22.51;100.00;101573.63;5139248;27;45229;-82
2022/07/22 06:19:55;;;;;;;;;11.50;10.75;;;;;22.52;100.00;101572.72;5126919;27;45334;-88
2022/07/22 06:22:21;;;;;;;;;14.75;13.25;;;;;22.56;100.00;101568.38;5106975;27;47619;-84
2022/07/22 06:24:47;;;;;;;;;11.00;11.00;;;;;22.59;100.00;101571.03;5118808;27;45353;-83
2022/07/22 06:27:14;;;;;;;;;11.00;10.50;;;;;22.66;100.00;101566.69;5132286;27;45347;-87
2022/07/22 06:29:41;;;;;;;;;13.00;13.00;;;;;22.69;100.00;101557.00;5118563;27;45351;-93
2022/07/22 06:32:07;;;;;;;;;16.00;15.25;;;;;22.80;100.00;101559.75;5121999;27;45405;-85
2022/07/22 06:34:33;;;;;;;;;12.00;10.75;;;;;22.85;100.00;101555.34;5136988;27;45673;-84
2022/07/22 06:36:59;;;;;;;;;15.75;11.25;;;;;22.93;100.00;101565.09;5121488;27;45357;-83
2022/07/22 06:39:25;;;;;;;;;12.50;10.50;;;;;22.98;100.00;101568.63;5120337;27;45418;-86
2022/07/22 06:41:50;;;;;;;;;15.25;13.75;;;;;23.02;100.00;101576.56;5117804;27;45250;-84
2022/07/22 06:44:16;;;;;;;;;15.00;11.25;;;;;23.04;99.92;101564.25;5133396;27;45636;-82
2022/07/22 06:46:42;;;;;;;;;31.50;30.50;;;;;23.09;99.14;101560.78;5118906;27;45310;-83
2022/07/22 06:49:07;;;;;;;;;16.25;13.25;;;;;23.13;99.02;101566.06;5138527;27;45582;-82
2022/07/22 06:51:33;;;;;;;;;17.50;13.25;;;;;23.17;98.85;101573.13;5137764;27;46340;-83
2022/07/22 06:54:00;;;;;;;;;16.00;14.75;;;;;23.22;98.41;101586.38;5137764;27;45368;-85
2022/07/22 06:56:25;;;;;;;;;15.75;13.00;;;;;23.29;98.17;101595.22;5138503;27;45415;-83
2022/07/22 06:58:51;;;;;;;;;17.75;14.25;;;;;23.35;97.50;101589.97;5137444;27;45317;-85
2022/07/22 07:01:17;;;;;;;;;15.75;14.25;;;;;23.43;96.81;101587.38;5138162;27;46114;-85
2022/07/22 07:03:42;;;;;;;;;18.75;14.50;;;;;23.42;96.66;101585.63;5137779;27;45321;-84
2022/07/22 07:06:13;;;;;;;;;14.50;13.50;;;;;23.47;96.71;101586.50;5138376;27;45288;-87
2022/07/22 07:08:40;;;;;;;;;16.25;16.00;;;;;23.50;95.86;101579.44;5120640;27;45474;-85
2022/07/22 07:11:06;;;;;;;;;16.25;12.25;;;;;23.55;94.50;101579.47;5119467;27;46851;-79
2022/07/22 07:13:32;;;;;;;;;12.50;12.00;;;;;23.53;95.64;101568.03;5138262;27;45436;-77
2022/07/22 07:15:57;;;;;;;;;15.25;13.00;;;;;23.60;95.62;101564.50;5138081;27;45241;-78
2022/07/22 07:18:23;;;;;;;;;17.00;14.75;;;;;23.67;95.28;101548.66;5141069;27;45248;-77
2022/07/22 07:20:49;;;;;;;;;14.25;13.50;;;;;23.74;94.82;101548.69;5139171;27;45311;-78
2022/07/22 07:23:15;;;;;;;;;14.50;13.75;;;;;23.81;94.12;101545.16;5137893;27;45302;-79
2022/07/22 07:25:40;;;;;;;;;15.00;13.00;;;;;23.89;93.94;101544.31;5119165;27;45299;-78
2022/07/22 07:28:06;;;;;;;;;14.00;13.00;;;;;23.98;93.48;101546.09;5137933;27;45223;-77
2022/07/22 07:30:32;;;;;;;;;15.75;15.25;;;;;24.05;92.81;101547.88;5137174;27;46271;-78
2022/07/22 07:33:00;;;;;;;;;17.00;13.25;;;;;24.11;91.94;101546.13;5137673;27;45326;-77
2022/07/22 07:35:26;;;;;;;;;15.75;15.00;;;;;24.13;92.39;101547.88;5138213;27;45362;-78
2022/07/22 07:37:52;;;;;;;;;15.00;14.50;;;;;24.17;92.21;101549.63;5138411;27;45283;-80
2022/07/22 07:40:18;;;;;;;;;13.50;13.50;;;;;24.17;91.73;101547.88;5137462;27;45211;-80
2022/07/22 07:42:44;;;;;;;;;14.75;13.75;;;;;24.18;92.12;101559.34;5137459;27;45329;-81
2022/07/22 07:45:10;;;;;;;;;12.25;11.75;;;;;24.21;91.81;101567.28;5137576;27;45360;-80
2022/07/22 07:47:36;;;;;;;;;17.00;14.75;;;;;24.23;91.13;101554.94;5137546;27;45400;-81
2022/07/22 07:50:03;;;;;;;;;14.25;12.75;;;;;24.27;91.57;101565.53;5137323;27;46165;-80
2022/07/22 07:52:29;;;;;;;;;12.75;12.75;;;;;24.37;91.10;101566.38;5137001;27;45465;-81
2022/07/22 07:54:55;;;;;;;;;22.25;16.25;;;;;24.47;90.35;101569.00;5137689;27;45491;-81
2022/07/22 07:57:21;;;;;;;;;18.00;17.75;;;;;24.53;88.38;101574.31;5137915;27;45534;-82
2022/07/22 07:59:47;;;;;;;;;16.25;15.25;;;;;24.51;89.61;101570.78;5137290;27;46541;-81
2022/07/22 08:02:12;;;;;;;;;12.50;12.50;;;;;24.56;89.83;101564.59;5138850;27;45329;-80
2022/07/22 08:04:38;;;;;;;;;17.75;13.50;;;;;24.64;88.95;101556.66;5137402;27;45173;-80
2022/07/22 08:07:05;;;;;;;;;16.00;14.50;;;;;24.72;88.93;101567.28;5137590;27;45241;-80
2022/07/22 08:09:31;;;;;;;;;16.25;13.75;;;;;24.73;88.45;101554.00;5139154;27;46577;-81
2022/07/22 08:11:56;;;;;;;;;16.50;16.25;;;;;24.80;87.93;101557.53;5141005;27;45464;-81
2022/07/22 08:14:23;;;;;;;;;13.25;13.25;;;;;24.79;88.36;101557.53;5141009;27;45230;-80
2022/07/22 08:16:49;;;;;;;;;16.75;15.75;;;;;24.79;88.90;101553.13;5140596;27;45305;-80
2022/07/22 08:19:15;;;;;;;;;20.75;17.50;;;;;24.82;87.88;101546.94;5140108;27;46190;-79
2022/07/22 08:21:42;;;;;;;;;17.50;12.25;;;;;24.85;87.53;101546.94;5140133;27;45407;-80
2022/07/22 08:24:11;;;;;;;;;16.50;15.25;;;;;24.91;87.56;101549.53;5140736;27;45384;-80
2022/07/22 08:26:36;;;;;;;;;15.75;13.75;;;;;24.93;87.31;101542.47;5143018;27;45430;-79
2022/07/22 08:29:03;;;;;;;;;18.50;17.00;;;;;24.97;87.76;101552.19;5146231;27;45332;-80
2022/07/22 08:31:31;;;;;;;;;17.00;13.50;;;;;25.00;86.54;101544.22;5140780;27;45384;-80
2022/07/22 08:33:59;;;;;;;;;15.50;15.50;;;;;25.06;87.13;101542.44;5140310;27;45400;-79
2022/07/22 08:36:24;;;;;;;;;14.50;11.25;;;;;25.09;86.74;101545.09;5140910;27;45200;-81
2022/07/22 08:38:50;;;;;;;;;12.25;12.00;;;;;25.15;87.30;101556.53;5139912;27;45894;-80
2022/07/22 08:41:16;;;;;;;;;16.50;15.00;;;;;25.22;86.44;101548.56;5140231;27;45165;-80
2022/07/22 08:43:44;;;;;;;;;15.25;14.75;;;;;25.30;86.56;101544.09;5121122;27;45554;-80
2022/07/22 08:46:09;;;;;;;;;19.25;16.75;;;;;25.37;84.71;101539.66;5140362;27;45366;-79
2022/07/22 08:48:39;;;;;;;;;21.25;19.25;;;;;25.40;85.19;101521.97;5139720;27;46487;-79
2022/07/22 08:51:06;;;;;;;;;20.00;14.25;;;;;25.45;84.85;101508.69;5140059;27;45666;-79
2022/07/22 08:53:31;;;;;;;;;19.25;17.00;;;;;25.52;84.27;101496.28;5139859;27;45336;-79
2022/07/22 08:55:58;;;;;;;;;15.00;15.00;;;;;25.57;84.45;101492.72;5139934;27;45633;-79
2022/07/22 08:58:25;;;;;;;;;18.25;17.50;;;;;25.66;84.43;101494.44;5139872;27;45391;-80
2022/07/22 09:01:07;;;;;;;;;18.75;17.50;;;;;25.77;83.27;101466.06;5139588;27;45330;-80
2022/07/22 09:03:32;;;;;;;;;15.00;15.00;;;;;25.85;83.35;101442.13;5139610;27;45254;-80
2022/07/22 09:05:59;;;;;;;;;17.50;16.00;;;;;25.90;83.10;101423.50;5140144;27;45576;-80
2022/07/22 09:08:25;;;;;;;;;17.75;16.00;;;;;25.96;82.83;101418.13;5139877;27;46371;-80
2022/07/22 09:10:50;;;;;;;;;16.50;15.25;;;;;26.00;82.60;101438.44;5139402;27;45389;-80
2022/07/22 09:13:16;;;;;;;;;19.00;17.00;;;;;26.05;82.78;101456.97;5139747;27;45353;-80
2022/07/22 09:15:51;;;;;;;;;18.50;15.25;;;;;26.11;82.64;101467.56;5139672;27;45583;-80
2022/07/22 09:18:17;;;;;;;;;17.50;16.00;;;;;26.20;82.51;101488.69;5120631;27;47211;-80
2022/07/22 09:20:46;;;;;;;;;17.25;14.75;;;;;26.25;82.42;101505.47;5138463;27;45348;-80
2022/07/22 09:23:17;;;;;;;;;16.75;16.00;;;;;26.31;81.46;101527.53;5139780;27;45246;-79
2022/07/22 09:25:43;;;;;;;;;22.00;18.25;;;;;26.35;80.76;101538.09;5139660;27;45443;-80
2022/07/22 09:28:09;;;;;;;;;18.00;16.25;;;;;26.36;80.85;101539.00;5120601;27;47996;-81
2022/07/22 09:30:38;;;;;;;;;17.50;16.25;;;;;26.30;79.72;101529.31;5139159;27;45314;-80
2022/07/22 09:33:05;;;;;;;;;19.25;17.50;;;;;26.25;80.82;101525.81;5139436;27;45483;-81
2022/07/22 09:35:31;;;;;;;;;16.00;14.50;;;;;26.30;80.73;101524.00;5139289;27;45341;-81
2022/07/22 09:38:08;;;;;;;;;16.50;16.50;;;;;26.39;81.08;101520.38;5139242;27;45450;-80
2022/07/22 09:40:36;;;;;;;;;20.50;16.00;;;;;26.39;80.46;101510.63;5139002;27;45700;-81
2022/07/22 09:43:11;;;;;;;;;16.25;13.75;;;;;26.45;80.23;101498.22;5139300;27;45337;-80
2022/07/22 09:45:45;;;;;;;;;25.25;20.75;;;;;26.46;80.45;101492.00;5139222;27;45320;-80
2022/07/22 09:48:11;;;;;;;;;19.50;16.25;;;;;26.50;79.33;101494.59;5120060;27;46539;-81
2022/07/22 09:50:37;;;;;;;;;17.00;14.75;;;;;26.50;79.91;101497.25;5138790;27;45960;-80
2022/07/22 09:53:03;;;;;;;;;20.00;16.00;;;;;26.51;80.08;101495.47;5139161;27;45216;-82
2022/07/22 09:55:29;;;;;;;;;19.50;18.50;;;;;26.57;79.97;101516.63;5138919;27;45401;-82
2022/07/22 09:57:56;;;;;;;;;20.25;17.75;;;;;26.60;79.93;101510.44;5120595;27;46734;-81
2022/07/22 10:00:25;;;;;;;;;17.25;15.25;;;;;26.62;79.27;101512.16;5139071;27;45344;-80
2022/07/22 10:02:53;;;;;;;;;16.00;16.00;;;;;26.65;78.94;101519.22;5138854;27;45259;-80
2022/07/22 10:05:22;;;;;;;;;19.00;17.50;;;;;26.64;79.63;101514.78;5139169;27;45630;-80
2022/07/22 10:07:48;;;;;;;;;17.75;17.75;;;;;26.64;78.90;101517.44;5138849;27;46214;-83
2022/07/22 10:10:20;;;;;;;;;18.75;17.75;;;;;26.56;79.38;101513.13;5139512;27;45772;-82
2022/07/22 10:12:51;;;;;;;;;21.00;19.25;;;;;26.43;80.19;101506.16;5120436;27;45340;-82
2022/07/22 10:15:17;;;;;;;;;21.50;18.50;;;;;26.29;80.45;101503.66;5139370;27;45993;-83
2022/07/22 10:17:46;;;;;;;;;16.75;14.50;;;;;26.19;81.78;101502.84;5138416;27;45569;-82
2022/07/22 10:20:12;;;;;;;;;7.75;6.00;;;;;26.12;82.13;101490.53;5138693;27;45927;-81
2022/07/22 10:22:44;;;;;;;;;17.75;17.25;;;;;26.03;82.48;101491.47;5138205;27;45453;-80
2022/07/22 10:25:13;;;;;;;;;22.25;18.00;;;;;25.93;83.28;101481.81;5138538;27;45369;-82
2022/07/22 10:27:45;;;;;;;;;20.50;17.50;;;;;25.83;83.87;101491.66;5119690;27;46171;-82
2022/07/22 10:30:12;;;;;;;;;20.25;15.50;;;;;25.76;84.06;101487.25;5138409;27;45382;-81
2022/07/22 10:32:39;;;;;;;;;17.00;13.25;;;;;25.68;85.03;101478.50;5138159;27;45436;-82
2022/07/22 10:35:10;;;;;;;;;22.75;19.25;;;;;25.59;85.09;101475.03;5138985;27;45595;-82
2022/07/22 10:37:40;;;;;;;;;22.75;21.00;;;;;25.53;87.09;101469.78;5137841;27;46395;-81
2022/07/22 10:40:17;;;;;;;;;18.75;17.25;;;;;25.46;88.64;101478.66;5138151;27;45179;-82
2022/07/22 10:42:58;;;;;;;;;21.50;19.00;;;;;25.42;90.57;101455.72;5138062;27;45374;-81
2022/07/22 10:45:47;;;;;;;;;21.00;19.00;;;;;25.41;92.11;101430.97;5139502;27;45210;-80
2022/07/22 10:48:16;;;;;;;;;22.25;21.00;;;;;25.44;94.80;101417.69;5138565;27;46202;-80
2022/07/22 10:50:45;;;;;;;;;22.75;19.00;;;;;25.46;96.62;101409.72;5137942;27;45275;-79
2022/07/22 10:53:19;;;;;;;;;19.50;19.00;;;;;25.49;98.19;101396.44;5138140;27;45257;-81
2022/07/22 10:55:58;;;;;;;;;22.50;20.25;;;;;25.55;100.00;101383.13;5138243;27;45434;-82
2022/07/22 10:58:33;;;;;;;;;26.75;21.75;;;;;25.55;100.00;101359.25;5138486;27;46072;-82
2022/07/22 11:01:06;;;;;;;;;24.00;22.00;;;;;25.59;100.00;101345.09;5138359;27;45718;-83